createdAt,value
2018-04-06T00:00:08.614Z,0.00
2018-04-06T00:01:08.623Z,0.00
2018-04-06T00:02:08.627Z,0.00
2018-04-06T00:03:08.634Z,0.00
2018-04-06T00:04:08.655Z,0.00
2018-04-06T00:05:08.649Z,0.00
2018-04-06T00:06:08.655Z,0.00
2018-04-06T00:07:08.661Z,0.00
2018-04-06T00:08:08.676Z,0.00
2018-04-06T00:09:08.679Z,0.00
2018-04-06T00:10:08.682Z,0.00
2018-04-06T00:11:08.694Z,0.00
2018-04-06T00:12:08.700Z,0.00
2018-04-06T00:13:08.706Z,0.00
2018-04-06T00:14:08.719Z,0.00
2018-04-06T00:15:08.717Z,0.00
2018-04-06T00:16:08.725Z,0.00
2018-04-06T00:17:08.734Z,0.00
2018-04-06T00:18:08.738Z,0.00
2018-04-06T00:19:08.747Z,0.00
2018-04-06T00:20:08.758Z,0.00
2018-04-06T00:21:08.764Z,0.00
2018-04-06T00:22:08.768Z,0.00
2018-04-06T00:23:08.773Z,0.00
2018-04-06T00:24:08.783Z,0.00
2018-04-06T00:25:08.787Z,0.00
2018-04-06T00:26:08.801Z,0.00
2018-04-06T00:27:08.803Z,0.00
2018-04-06T00:28:08.818Z,0.00
2018-04-06T00:29:08.819Z,0.00
2018-04-06T00:30:08.822Z,0.00
2018-04-06T00:31:08.827Z,0.00
2018-04-06T00:32:08.840Z,0.00
2018-04-06T00:33:08.843Z,0.00
2018-04-06T00:34:08.861Z,0.00
2018-04-06T00:35:08.859Z,0.00
2018-04-06T00:36:08.862Z,0.00
2018-04-06T00:37:08.874Z,0.00
2018-04-06T00:38:08.880Z,0.00
2018-04-06T00:39:08.884Z,0.00
2018-04-06T00:40:08.890Z,0.00
2018-04-06T00:41:08.897Z,0.00
2018-04-06T00:42:08.902Z,0.00
2018-04-06T00:43:08.907Z,0.00
2018-04-06T00:44:08.924Z,0.00
2018-04-06T00:45:08.927Z,0.00
2018-04-06T00:46:08.933Z,0.00
2018-04-06T00:47:08.939Z,0.00
2018-04-06T00:48:08.944Z,0.00
2018-04-06T00:49:08.950Z,0.00
2018-04-06T00:50:08.959Z,0.00
2018-04-06T00:51:08.962Z,0.00
2018-04-06T00:52:08.971Z,0.00
2018-04-06T00:53:08.978Z,0.00
2018-04-06T00:54:08.986Z,0.00
2018-04-06T00:55:09.015Z,0.00
2018-04-06T00:56:09.003Z,0.00
2018-04-06T00:57:09.005Z,0.00
2018-04-06T00:58:09.008Z,0.00
2018-04-06T00:59:09.018Z,0.00
2018-04-06T01:00:09.021Z,0.00
2018-04-06T01:01:09.027Z,0.00
2018-04-06T01:02:09.040Z,0.00
2018-04-06T01:03:09.041Z,0.00
2018-04-06T01:04:09.048Z,0.00
2018-04-06T01:05:09.053Z,0.00
2018-04-06T01:06:09.060Z,0.00
2018-04-06T01:07:09.070Z,0.00
2018-04-06T01:08:09.073Z,0.00
2018-04-06T01:09:09.083Z,0.00
2018-04-06T01:10:09.091Z,0.00
2018-04-06T01:11:09.101Z,0.00
2018-04-06T01:12:09.101Z,0.00
2018-04-06T01:13:09.106Z,0.00
2018-04-06T01:14:09.116Z,0.00
2018-04-06T01:15:09.122Z,0.00
2018-04-06T01:16:09.124Z,0.00
2018-04-06T01:17:09.135Z,0.00
2018-04-06T01:18:09.146Z,0.00
2018-04-06T01:19:09.151Z,0.00
2018-04-06T01:20:09.160Z,0.00
2018-04-06T01:21:09.165Z,0.00
2018-04-06T01:22:09.169Z,0.00
2018-04-06T01:23:09.171Z,0.00
2018-04-06T01:24:09.177Z,0.00
2018-04-06T01:25:09.186Z,0.00
2018-04-06T01:26:09.189Z,0.00
2018-04-06T01:27:09.203Z,0.00
2018-04-06T01:28:09.201Z,0.00
2018-04-06T01:29:09.208Z,0.00
2018-04-06T01:30:09.221Z,0.00
2018-04-06T01:31:09.223Z,0.00
2018-04-06T01:32:09.228Z,0.00
2018-04-06T01:33:09.243Z,0.00
2018-04-06T01:34:09.241Z,0.00
2018-04-06T01:35:09.247Z,0.00
2018-04-06T01:36:09.254Z,0.00
2018-04-06T01:37:09.270Z,0.00
2018-04-06T01:38:09.267Z,0.00
2018-04-06T01:39:09.277Z,0.00
2018-04-06T01:40:09.278Z,0.00
2018-04-06T01:41:09.286Z,0.00
2018-04-06T01:42:09.295Z,0.00
2018-04-06T01:43:09.296Z,0.00
2018-04-06T01:44:09.300Z,0.00
2018-04-06T01:45:09.320Z,0.00
2018-04-06T01:46:09.315Z,0.00
2018-04-06T01:47:09.327Z,0.00
2018-04-06T01:48:09.328Z,0.00
2018-04-06T01:49:09.336Z,0.00
2018-04-06T01:50:09.337Z,0.00
2018-04-06T01:51:09.346Z,0.00
2018-04-06T01:52:09.370Z,0.00
2018-04-06T01:53:09.362Z,0.00
2018-04-06T01:54:09.365Z,0.00
2018-04-06T01:55:09.371Z,0.00
2018-04-06T01:56:09.380Z,0.00
2018-04-06T01:57:09.395Z,0.00
2018-04-06T01:58:09.404Z,0.00
2018-04-06T01:59:09.446Z,0.00
2018-04-06T02:00:09.399Z,0.00
2018-04-06T02:01:09.407Z,0.00
2018-04-06T02:02:09.413Z,0.00
2018-04-06T02:03:09.418Z,0.00
2018-04-06T02:04:09.434Z,0.00
2018-04-06T02:05:09.439Z,0.00
2018-04-06T02:06:09.436Z,0.00
2018-04-06T02:07:09.443Z,0.00
2018-04-06T02:08:09.510Z,0.00
2018-04-06T02:09:09.453Z,0.00
2018-04-06T02:10:09.479Z,0.00
2018-04-06T02:11:09.468Z,0.00
2018-04-06T02:12:09.479Z,0.00
2018-04-06T02:13:09.502Z,0.00
2018-04-06T02:14:09.486Z,0.00
2018-04-06T02:15:09.493Z,0.00
2018-04-06T02:16:09.507Z,0.00
2018-04-06T02:17:09.506Z,0.00
2018-04-06T02:18:09.510Z,0.00
2018-04-06T02:19:09.516Z,0.00
2018-04-06T02:20:09.520Z,0.00
2018-04-06T02:21:09.530Z,0.00
2018-04-06T02:22:09.540Z,0.00
2018-04-06T02:23:09.551Z,0.00
2018-04-06T02:24:09.543Z,0.00
2018-04-06T02:25:09.551Z,0.00
2018-04-06T02:26:09.557Z,0.00
2018-04-06T02:27:09.561Z,0.00
2018-04-06T02:28:09.574Z,0.00
2018-04-06T02:29:09.574Z,0.00
2018-04-06T02:30:09.582Z,0.00
2018-04-06T02:31:09.590Z,0.00
2018-04-06T02:32:09.598Z,0.00
2018-04-06T02:33:09.598Z,0.00
2018-04-06T02:34:09.624Z,0.00
2018-04-06T02:35:09.614Z,0.00
2018-04-06T02:36:09.620Z,0.00
2018-04-06T02:37:09.626Z,0.00
2018-04-06T02:38:09.634Z,0.00
2018-04-06T02:39:09.633Z,0.00
2018-04-06T02:40:09.648Z,0.00
2018-04-06T02:41:09.654Z,0.00
2018-04-06T02:42:09.654Z,0.00
2018-04-06T02:43:09.660Z,0.00
2018-04-06T02:44:09.664Z,0.00
2018-04-06T02:45:09.679Z,0.00
2018-04-06T02:46:09.682Z,0.00
2018-04-06T02:47:09.684Z,0.00
2018-04-06T02:48:09.690Z,0.00
2018-04-06T02:49:09.697Z,0.00
2018-04-06T02:50:09.702Z,0.00
2018-04-06T02:51:09.716Z,0.00
2018-04-06T02:52:09.723Z,0.00
2018-04-06T02:53:09.717Z,0.00
2018-04-06T02:54:09.722Z,0.00
2018-04-06T02:55:09.729Z,0.00
2018-04-06T02:56:09.733Z,0.00
2018-04-06T02:57:09.741Z,0.00
2018-04-06T02:58:09.755Z,0.00
2018-04-06T02:59:09.754Z,0.00
2018-04-06T03:00:09.759Z,0.00
2018-04-06T03:01:09.765Z,0.00
2018-04-06T03:02:09.768Z,0.00
2018-04-06T03:03:09.814Z,0.00
2018-04-06T03:04:09.777Z,0.00
2018-04-06T03:05:09.792Z,0.00
2018-04-06T03:06:09.790Z,0.00
2018-04-06T03:07:09.798Z,0.00
2018-04-06T03:08:09.803Z,0.00
2018-04-06T03:09:09.808Z,0.00
2018-04-06T03:10:09.818Z,0.00
2018-04-06T03:11:09.829Z,0.00
2018-04-06T03:12:09.826Z,0.00
2018-04-06T03:13:09.835Z,0.00
2018-04-06T03:14:09.838Z,0.00
2018-04-06T03:15:09.842Z,0.00
2018-04-06T03:16:09.858Z,0.00
2018-04-06T03:17:09.859Z,0.00
2018-04-06T03:18:09.859Z,0.00
2018-04-06T03:19:09.868Z,0.00
2018-04-06T03:20:09.871Z,0.00
2018-04-06T03:21:09.880Z,0.00
2018-04-06T03:22:09.883Z,0.00
2018-04-06T03:23:09.896Z,0.00
2018-04-06T03:24:09.898Z,0.00
2018-04-06T03:25:09.899Z,0.00
2018-04-06T03:26:09.905Z,0.00
2018-04-06T03:27:09.913Z,0.00
2018-04-06T03:28:09.919Z,0.00
2018-04-06T03:29:09.934Z,0.00
2018-04-06T03:30:09.928Z,0.00
2018-04-06T03:31:09.938Z,0.00
2018-04-06T03:32:09.939Z,0.00
2018-04-06T03:33:09.945Z,0.00
2018-04-06T03:34:09.950Z,0.00
2018-04-06T03:35:09.964Z,0.00
2018-04-06T03:36:09.963Z,0.00
2018-04-06T03:37:09.967Z,0.00
2018-04-06T03:38:09.975Z,0.00
2018-04-06T03:39:09.979Z,0.00
2018-04-06T03:40:09.988Z,0.00
2018-04-06T03:41:09.992Z,0.00
2018-04-06T03:42:09.993Z,0.00
2018-04-06T03:43:10.001Z,0.00
2018-04-06T03:44:10.008Z,0.00
2018-04-06T03:45:10.013Z,0.00
2018-04-06T03:46:10.020Z,0.00
2018-04-06T03:47:10.032Z,0.00
2018-04-06T03:48:10.028Z,0.00
2018-04-06T03:49:10.039Z,0.00
2018-04-06T03:50:10.042Z,0.00
2018-04-06T03:51:10.046Z,0.00
2018-04-06T03:52:10.049Z,0.00
2018-04-06T03:53:10.088Z,0.00
2018-04-06T03:54:10.062Z,0.00
2018-04-06T03:55:10.066Z,0.00
2018-04-06T03:56:10.080Z,0.00
2018-04-06T03:57:10.078Z,0.00
2018-04-06T03:58:10.084Z,0.00
2018-04-06T03:59:10.092Z,0.00
2018-04-06T04:00:10.098Z,0.00
2018-04-06T04:01:10.103Z,0.00
2018-04-06T04:02:10.113Z,0.00
2018-04-06T04:03:10.110Z,0.00
2018-04-06T04:04:10.117Z,0.00
2018-04-06T04:05:10.134Z,0.00
2018-04-06T04:06:10.138Z,0.00
2018-04-06T04:07:10.134Z,0.00
2018-04-06T04:08:10.139Z,0.00
2018-04-06T04:09:10.144Z,0.00
2018-04-06T04:10:10.148Z,0.00
2018-04-06T04:11:10.159Z,0.00
2018-04-06T04:12:10.165Z,0.00
2018-04-06T04:13:10.167Z,0.00
2018-04-06T04:14:10.170Z,0.00
2018-04-06T04:15:10.177Z,0.00
2018-04-06T04:16:10.183Z,0.00
2018-04-06T04:17:10.197Z,0.00
2018-04-06T04:18:10.194Z,0.00
2018-04-06T04:19:10.202Z,0.00
2018-04-06T04:20:10.206Z,0.00
2018-04-06T04:21:10.211Z,0.00
2018-04-06T04:22:10.222Z,0.00
2018-04-06T04:23:10.228Z,0.00
2018-04-06T04:24:10.230Z,0.00
2018-04-06T04:25:10.233Z,0.00
2018-04-06T04:26:10.235Z,0.00
2018-04-06T04:27:10.245Z,0.00
2018-04-06T04:28:10.260Z,0.00
2018-04-06T04:29:10.265Z,0.00
2018-04-06T04:30:10.261Z,0.00
2018-04-06T04:31:10.263Z,0.00
2018-04-06T04:32:10.269Z,0.00
2018-04-06T04:33:10.276Z,0.00
2018-04-06T04:34:10.281Z,0.00
2018-04-06T04:35:10.295Z,0.00
2018-04-06T04:36:10.296Z,0.00
2018-04-06T04:37:10.295Z,0.00
2018-04-06T04:38:10.300Z,0.00
2018-04-06T04:39:10.305Z,0.00
2018-04-06T04:40:10.311Z,0.00
2018-04-06T04:41:10.323Z,0.00
2018-04-06T04:42:10.324Z,0.00
2018-04-06T04:43:10.329Z,0.00
2018-04-06T04:44:10.334Z,0.00
2018-04-06T04:45:10.341Z,0.00
2018-04-06T04:46:10.366Z,5.63
2018-04-06T04:47:10.353Z,5.63
2018-04-06T04:48:10.355Z,5.63
2018-04-06T04:49:10.360Z,5.63
2018-04-06T04:50:10.363Z,5.63
2018-04-06T04:51:10.369Z,5.63
2018-04-06T04:52:10.375Z,5.63
2018-04-06T04:53:10.398Z,11.25
2018-04-06T04:54:10.387Z,11.25
2018-04-06T04:55:10.391Z,11.25
2018-04-06T04:56:10.395Z,11.25
2018-04-06T04:57:10.404Z,11.25
2018-04-06T04:58:10.406Z,11.25
2018-04-06T04:59:10.422Z,16.88
2018-04-06T05:00:10.417Z,16.88
2018-04-06T05:01:10.425Z,16.88
2018-04-06T05:02:10.429Z,16.88
2018-04-06T05:03:10.431Z,16.88
2018-04-06T05:04:10.449Z,22.50
2018-04-06T05:05:10.449Z,22.50
2018-04-06T05:06:10.461Z,22.50
2018-04-06T05:07:10.453Z,22.50
2018-04-06T05:08:10.458Z,22.50
2018-04-06T05:09:10.464Z,28.13
2018-04-06T05:10:10.469Z,28.13
2018-04-06T05:11:10.481Z,28.13
2018-04-06T05:12:10.482Z,28.13
2018-04-06T05:13:10.490Z,28.13
2018-04-06T05:14:10.491Z,33.75
2018-04-06T05:15:10.498Z,33.75
2018-04-06T05:16:10.505Z,33.75
2018-04-06T05:17:10.521Z,39.38
2018-04-06T05:18:10.512Z,39.38
2018-04-06T05:19:10.520Z,39.38
2018-04-06T05:20:10.522Z,45.00
2018-04-06T05:21:10.530Z,45.00
2018-04-06T05:22:10.535Z,45.00
2018-04-06T05:23:10.544Z,50.63
2018-04-06T05:24:10.546Z,50.63
2018-04-06T05:25:10.549Z,50.63
2018-04-06T05:26:10.554Z,50.63
2018-04-06T05:27:10.559Z,56.25
2018-04-06T05:28:10.569Z,56.25
2018-04-06T05:29:10.570Z,56.25
2018-04-06T05:30:10.585Z,61.88
2018-04-06T05:31:10.584Z,61.88
2018-04-06T05:32:10.591Z,61.88
2018-04-06T05:33:10.596Z,61.88
2018-04-06T05:34:10.597Z,67.50
2018-04-06T05:35:10.604Z,67.50
2018-04-06T05:36:10.618Z,67.50
2018-04-06T05:37:10.613Z,67.50
2018-04-06T05:38:10.619Z,67.50
2018-04-06T05:39:10.623Z,67.50
2018-04-06T05:40:10.629Z,73.13
2018-04-06T05:41:10.635Z,73.13
2018-04-06T05:42:10.639Z,73.13
2018-04-06T05:43:10.658Z,73.13
2018-04-06T05:44:10.658Z,73.13
2018-04-06T05:45:10.657Z,73.13
2018-04-06T05:46:10.666Z,78.75
2018-04-06T05:47:10.669Z,78.75
2018-04-06T05:48:10.674Z,78.75
2018-04-06T05:49:10.693Z,78.75
2018-04-06T05:50:10.687Z,78.75
2018-04-06T05:51:10.694Z,84.38
2018-04-06T05:52:10.699Z,84.38
2018-04-06T05:53:10.722Z,90.00
2018-04-06T05:54:10.711Z,90.00
2018-04-06T05:55:10.733Z,90.00
2018-04-06T05:56:10.717Z,90.00
2018-04-06T05:57:10.724Z,90.00
2018-04-06T05:58:10.730Z,90.00
2018-04-06T05:59:10.738Z,90.00
2018-04-06T06:00:10.753Z,90.00
2018-04-06T06:01:10.758Z,90.00
2018-04-06T06:02:10.750Z,90.00
2018-04-06T06:03:10.757Z,90.00
2018-04-06T06:04:10.764Z,90.00
2018-04-06T06:05:10.769Z,90.00
2018-04-06T06:06:10.778Z,90.00
2018-04-06T06:07:10.781Z,90.00
2018-04-06T06:08:10.805Z,90.00
2018-04-06T06:09:10.794Z,90.00
2018-04-06T06:10:10.800Z,95.63
2018-04-06T06:11:10.802Z,90.00
2018-04-06T06:12:10.811Z,90.00
2018-04-06T06:13:10.817Z,90.00
2018-04-06T06:14:10.829Z,90.00
2018-04-06T06:15:10.826Z,95.63
2018-04-06T06:16:10.835Z,95.63
2018-04-06T06:17:10.841Z,95.63
2018-04-06T06:18:10.843Z,95.63
2018-04-06T06:19:10.868Z,95.63
2018-04-06T06:20:10.904Z,95.63
2018-04-06T06:21:10.868Z,101.25
2018-04-06T06:22:10.872Z,101.25
2018-04-06T06:23:10.920Z,101.25
2018-04-06T06:24:10.883Z,101.25
2018-04-06T06:25:10.894Z,101.25
2018-04-06T06:26:10.890Z,106.88
2018-04-06T06:27:10.895Z,106.88
2018-04-06T06:28:10.909Z,101.25
2018-04-06T06:29:10.934Z,106.88
2018-04-06T06:30:10.914Z,106.88
2018-04-06T06:31:10.920Z,106.88
2018-04-06T06:32:10.929Z,106.88
2018-04-06T06:33:10.972Z,106.88
2018-04-06T06:34:10.950Z,106.88
2018-04-06T06:35:10.945Z,106.88
2018-04-06T06:36:10.955Z,112.50
2018-04-06T06:37:10.957Z,112.50
2018-04-06T06:38:10.965Z,118.13
2018-04-06T06:39:10.969Z,118.13
2018-04-06T06:40:10.982Z,118.13
2018-04-06T06:41:10.981Z,123.75
2018-04-06T06:42:10.998Z,123.75
2018-04-06T06:43:11.006Z,123.75
2018-04-06T06:44:11.007Z,123.75
2018-04-06T06:45:11.008Z,129.38
2018-04-06T06:46:11.013Z,129.38
2018-04-06T06:47:11.027Z,129.38
2018-04-06T06:48:11.061Z,129.38
2018-04-06T06:49:11.035Z,129.38
2018-04-06T06:50:11.039Z,129.38
2018-04-06T06:51:11.043Z,123.75
2018-04-06T06:52:11.052Z,135.00
2018-04-06T06:53:11.062Z,135.00
2018-04-06T06:54:11.062Z,140.63
2018-04-06T06:55:11.069Z,140.63
2018-04-06T06:56:11.076Z,140.63
2018-04-06T06:57:11.083Z,140.63
2018-04-06T06:58:11.089Z,140.63
2018-04-06T06:59:11.102Z,140.63
2018-04-06T07:00:11.106Z,140.63
2018-04-06T07:01:11.111Z,140.63
2018-04-06T07:02:11.113Z,140.63
2018-04-06T07:03:11.122Z,140.63
2018-04-06T07:04:11.132Z,140.63
2018-04-06T07:05:11.140Z,140.63
2018-04-06T07:06:11.141Z,140.63
2018-04-06T07:07:11.874Z,140.63
2018-04-06T07:08:11.158Z,140.63
2018-04-06T07:09:11.169Z,140.63
2018-04-06T07:10:11.170Z,140.63
2018-04-06T07:11:11.175Z,146.25
2018-04-06T07:12:11.179Z,146.25
2018-04-06T07:13:11.186Z,146.25
2018-04-06T07:14:11.191Z,151.88
2018-04-06T07:15:11.202Z,151.88
2018-04-06T07:16:11.208Z,151.88
2018-04-06T07:17:11.246Z,151.88
2018-04-06T07:18:11.222Z,151.88
2018-04-06T07:19:11.226Z,157.50
2018-04-06T07:20:11.238Z,157.50
2018-04-06T07:21:11.240Z,163.13
2018-04-06T07:22:11.249Z,168.75
2018-04-06T07:23:11.260Z,174.38
2018-04-06T07:24:11.263Z,174.38
2018-04-06T07:25:11.272Z,180.00
2018-04-06T07:26:11.318Z,180.00
2018-04-06T07:27:11.283Z,185.63
2018-04-06T07:28:11.295Z,191.25
2018-04-06T07:29:11.294Z,191.25
2018-04-06T07:30:11.310Z,196.88
2018-04-06T07:31:11.308Z,202.50
2018-04-06T07:32:11.317Z,202.50
2018-04-06T07:33:11.332Z,208.13
2018-04-06T07:34:11.330Z,208.13
2018-04-06T07:35:11.344Z,208.13
2018-04-06T07:36:11.351Z,208.13
2018-04-06T07:37:11.360Z,208.13
2018-04-06T07:38:11.356Z,208.13
2018-04-06T07:39:11.366Z,208.13
2018-04-06T07:40:11.376Z,208.13
2018-04-06T07:41:11.383Z,213.75
2018-04-06T07:42:11.399Z,213.75
2018-04-06T07:43:11.392Z,213.75
2018-04-06T07:44:11.403Z,213.75
2018-04-06T07:45:11.411Z,213.75
2018-04-06T07:46:11.423Z,213.75
2018-04-06T07:47:11.419Z,208.13
2018-04-06T07:48:11.431Z,208.13
2018-04-06T07:49:11.444Z,202.50
2018-04-06T07:50:11.453Z,196.88
2018-04-06T07:51:11.449Z,191.25
2018-04-06T07:52:11.458Z,196.88
2018-04-06T07:53:11.498Z,185.63
2018-04-06T07:54:11.475Z,185.63
2018-04-06T07:55:11.487Z,180.00
2018-04-06T07:56:11.502Z,180.00
2018-04-06T07:57:11.498Z,180.00
2018-04-06T07:58:11.504Z,174.38
2018-04-06T07:59:11.508Z,174.38
2018-04-06T08:00:11.518Z,180.00
2018-04-06T08:01:11.534Z,180.00
2018-04-06T08:02:11.531Z,180.00
2018-04-06T08:03:11.562Z,185.63
2018-04-06T08:04:11.547Z,185.63
2018-04-06T08:05:11.558Z,185.63
2018-04-06T08:06:11.560Z,191.25
2018-04-06T08:07:11.570Z,191.25
2018-04-06T08:08:11.579Z,196.88
2018-04-06T08:09:11.592Z,191.25
2018-04-06T08:10:11.591Z,191.25
2018-04-06T08:11:11.598Z,191.25
2018-04-06T08:12:11.624Z,191.25
2018-04-06T08:13:11.621Z,196.88
2018-04-06T08:14:11.630Z,196.88
2018-04-06T08:15:11.632Z,196.88
2018-04-06T08:16:11.637Z,202.50
2018-04-06T08:17:11.652Z,196.88
2018-04-06T08:18:11.651Z,196.88
2018-04-06T08:19:11.659Z,191.25
2018-04-06T08:20:11.668Z,191.25
2018-04-06T08:21:11.684Z,191.25
2018-04-06T08:22:11.688Z,191.25
2018-04-06T08:23:11.702Z,185.63
2018-04-06T08:24:11.700Z,180.00
2018-04-06T08:25:11.704Z,180.00
2018-04-06T08:26:11.734Z,185.63
2018-04-06T08:27:11.725Z,185.63
2018-04-06T08:28:11.729Z,180.00
2018-04-06T08:29:11.737Z,185.63
2018-04-06T08:30:11.747Z,191.25
2018-04-06T08:31:11.749Z,191.25
2018-04-06T08:32:11.759Z,185.63
2018-04-06T08:33:11.765Z,191.25
2018-04-06T08:34:11.774Z,196.88
2018-04-06T08:35:11.785Z,191.25
2018-04-06T08:36:11.788Z,196.88
2018-04-06T08:37:11.797Z,191.25
2018-04-06T08:38:11.813Z,191.25
2018-04-06T08:39:11.821Z,196.88
2018-04-06T08:40:11.820Z,196.88
2018-04-06T08:41:11.838Z,202.50
2018-04-06T08:42:11.843Z,208.13
2018-04-06T08:43:11.840Z,208.13
2018-04-06T08:44:11.862Z,219.38
2018-04-06T08:45:11.865Z,219.38
2018-04-06T08:46:11.884Z,219.38
2018-04-06T08:47:11.881Z,225.00
2018-04-06T08:48:11.886Z,236.25
2018-04-06T08:49:11.893Z,225.00
2018-04-06T08:50:11.895Z,230.63
2018-04-06T08:51:11.904Z,225.00
2018-04-06T08:52:12.685Z,225.00
2018-04-06T08:53:11.921Z,219.38
2018-04-06T08:54:11.935Z,219.38
2018-04-06T08:55:11.936Z,219.38
2018-04-06T08:56:11.946Z,213.75
2018-04-06T08:57:11.954Z,213.75
2018-04-06T08:58:11.960Z,219.38
2018-04-06T08:59:11.971Z,219.38
2018-04-06T09:00:11.983Z,213.75
2018-04-06T09:01:11.987Z,219.38
2018-04-06T09:02:11.993Z,213.75
2018-04-06T09:03:12.003Z,213.75
2018-04-06T09:04:12.012Z,213.75
2018-04-06T09:05:12.023Z,208.13
2018-04-06T09:06:12.036Z,208.13
2018-04-06T09:07:12.057Z,208.13
2018-04-06T09:08:12.040Z,208.13
2018-04-06T09:09:12.085Z,208.13
2018-04-06T09:10:12.058Z,219.38
2018-04-06T09:11:12.066Z,225.00
2018-04-06T09:12:12.089Z,230.63
2018-04-06T09:13:12.084Z,236.25
2018-04-06T09:14:12.092Z,241.88
2018-04-06T09:15:12.129Z,236.25
2018-04-06T09:16:12.111Z,241.88
2018-04-06T09:17:12.116Z,230.63
2018-04-06T09:18:12.135Z,230.63
2018-04-06T09:19:12.138Z,230.63
2018-04-06T09:20:12.143Z,230.63
2018-04-06T09:21:12.205Z,219.38
2018-04-06T09:22:12.159Z,225.00
2018-04-06T09:23:12.207Z,236.25
2018-04-06T09:24:12.181Z,236.25
2018-04-06T09:25:12.181Z,241.88
2018-04-06T09:26:12.192Z,236.25
2018-04-06T09:27:12.197Z,230.63
2018-04-06T09:28:12.209Z,230.63
2018-04-06T09:29:12.217Z,236.25
2018-04-06T09:30:12.222Z,236.25
2018-04-06T09:31:12.239Z,241.88
2018-04-06T09:32:12.265Z,241.88
2018-04-06T09:33:12.253Z,241.88
2018-04-06T09:34:12.262Z,253.13
2018-04-06T09:35:12.277Z,264.38
2018-04-06T09:36:12.274Z,264.38
2018-04-06T09:37:12.291Z,281.25
2018-04-06T09:38:12.291Z,292.50
2018-04-06T09:39:12.302Z,298.13
2018-04-06T09:40:12.308Z,309.38
2018-04-06T09:41:12.318Z,315.00
2018-04-06T09:42:12.328Z,320.63
2018-04-06T09:43:12.335Z,320.63
2018-04-06T09:44:12.351Z,326.25
2018-04-06T09:45:12.354Z,337.50
2018-04-06T09:46:12.365Z,331.88
2018-04-06T09:47:12.376Z,337.50
2018-04-06T09:48:12.383Z,337.50
2018-04-06T09:49:12.403Z,343.13
2018-04-06T09:50:12.399Z,348.75
2018-04-06T09:51:12.412Z,354.38
2018-04-06T09:52:12.413Z,348.75
2018-04-06T09:53:12.464Z,348.75
2018-04-06T09:54:12.435Z,343.13
2018-04-06T09:55:12.439Z,348.75
2018-04-06T09:56:13.142Z,326.25
2018-04-06T09:57:12.458Z,326.25
2018-04-06T09:58:12.679Z,326.25
2018-04-06T09:59:12.486Z,326.25
2018-04-06T10:00:12.486Z,320.63
2018-04-06T10:01:12.494Z,326.25
2018-04-06T10:02:12.504Z,326.25
2018-04-06T10:03:12.519Z,331.88
2018-04-06T10:04:12.526Z,326.25
2018-04-06T10:05:12.531Z,315.00
2018-04-06T10:06:12.540Z,292.50
2018-04-06T10:07:13.142Z,286.88
2018-04-06T10:08:12.561Z,281.25
2018-04-06T10:09:12.568Z,281.25
2018-04-06T10:10:12.582Z,286.88
2018-04-06T10:11:12.604Z,292.50
2018-04-06T10:12:12.602Z,292.50
2018-04-06T10:13:12.605Z,292.50
2018-04-06T10:14:12.614Z,298.13
2018-04-06T10:15:12.624Z,303.75
2018-04-06T10:16:12.633Z,303.75
2018-04-06T10:17:12.642Z,309.38
2018-04-06T10:18:12.650Z,315.00
2018-04-06T10:19:12.664Z,315.00
2018-04-06T10:20:12.682Z,315.00
2018-04-06T10:21:12.678Z,320.63
2018-04-06T10:22:12.689Z,320.63
2018-04-06T10:23:12.697Z,320.63
2018-04-06T10:24:13.650Z,326.25
2018-04-06T10:25:12.716Z,315.00
2018-04-06T10:26:12.735Z,298.13
2018-04-06T10:27:12.738Z,331.88
2018-04-06T10:28:12.745Z,331.88
2018-04-06T10:29:12.754Z,331.88
2018-04-06T10:30:12.776Z,337.50
2018-04-06T10:31:12.777Z,337.50
2018-04-06T10:32:12.785Z,343.13
2018-04-06T10:33:12.850Z,337.50
2018-04-06T10:34:12.806Z,337.50
2018-04-06T10:35:12.835Z,337.50
2018-04-06T10:36:12.818Z,337.50
2018-04-06T10:37:12.845Z,331.88
2018-04-06T10:38:12.841Z,315.00
2018-04-06T10:39:12.848Z,326.25
2018-04-06T10:40:12.859Z,326.25
2018-04-06T10:41:12.868Z,320.63
2018-04-06T10:42:12.879Z,320.63
2018-04-06T10:43:12.896Z,320.63
2018-04-06T10:44:12.901Z,315.00
2018-04-06T10:45:12.905Z,309.38
2018-04-06T10:46:12.914Z,309.38
2018-04-06T10:47:12.930Z,320.63
2018-04-06T10:48:12.941Z,320.63
2018-04-06T10:49:12.945Z,320.63
2018-04-06T10:50:12.964Z,320.63
2018-04-06T10:51:12.967Z,348.75
2018-04-06T10:52:12.981Z,1102.50
2018-04-06T10:53:12.985Z,2548.13
2018-04-06T10:54:12.993Z,3228.75
2018-04-06T10:55:13.028Z,3228.75
2018-04-06T10:56:13.015Z,3183.75
2018-04-06T10:57:13.036Z,3330.00
2018-04-06T10:58:13.036Z,3431.25
2018-04-06T10:59:13.047Z,3487.50
2018-04-06T11:00:13.060Z,3566.25
2018-04-06T11:01:13.070Z,3577.50
2018-04-06T11:02:13.084Z,3549.38
2018-04-06T11:03:13.102Z,3577.50
2018-04-06T11:04:13.112Z,3678.75
2018-04-06T11:05:13.125Z,3898.13
2018-04-06T11:06:13.147Z,3819.38
2018-04-06T11:07:13.161Z,3645.00
2018-04-06T11:08:13.170Z,3391.88
2018-04-06T11:09:13.194Z,3279.38
2018-04-06T11:10:13.235Z,3245.63
2018-04-06T11:11:13.222Z,3386.25
2018-04-06T11:12:13.238Z,3391.88
2018-04-06T11:13:13.254Z,3493.13
2018-04-06T11:14:13.272Z,3690.00
2018-04-06T11:15:13.294Z,3785.63
2018-04-06T11:16:13.311Z,3645.00
2018-04-06T11:17:13.332Z,3588.75
2018-04-06T11:18:13.347Z,3678.75
2018-04-06T11:19:13.368Z,3886.88
2018-04-06T11:20:13.383Z,3819.38
2018-04-06T11:21:13.411Z,3155.63
2018-04-06T11:22:13.424Z,2126.25
2018-04-06T11:23:13.467Z,1833.75
2018-04-06T11:24:13.463Z,1833.75
2018-04-06T11:25:13.494Z,1828.13
2018-04-06T11:26:13.503Z,1783.13
2018-04-06T11:27:13.529Z,1822.50
2018-04-06T11:28:13.551Z,1867.50
2018-04-06T11:29:13.564Z,1906.88
2018-04-06T11:30:13.585Z,1878.75
2018-04-06T11:31:13.605Z,1906.88
2018-04-06T11:32:13.631Z,1935.00
2018-04-06T11:33:13.649Z,697.50
2018-04-06T11:34:13.681Z,2013.75
2018-04-06T11:35:13.706Z,2030.63
2018-04-06T11:36:13.711Z,2047.50
2018-04-06T11:37:13.737Z,2081.25
2018-04-06T11:38:13.767Z,2227.50
2018-04-06T11:39:13.777Z,2272.50
2018-04-06T11:40:13.800Z,2272.50
2018-04-06T11:41:13.825Z,2295.00
2018-04-06T11:42:13.848Z,2306.25
2018-04-06T11:43:13.869Z,2283.75
2018-04-06T11:44:13.930Z,2356.88
2018-04-06T11:45:13.911Z,2379.38
2018-04-06T11:46:13.939Z,2413.13
2018-04-06T11:47:13.965Z,2424.38
2018-04-06T11:48:13.981Z,2418.75
2018-04-06T11:49:14.004Z,2458.13
2018-04-06T11:50:14.026Z,2525.63
2018-04-06T11:51:14.055Z,2548.13
2018-04-06T11:52:14.086Z,2536.88
2018-04-06T11:53:14.096Z,2565.00
2018-04-06T11:54:14.144Z,2598.75
2018-04-06T11:55:14.141Z,2604.38
2018-04-06T11:56:14.162Z,2604.38
2018-04-06T11:57:14.191Z,2604.38
2018-04-06T11:58:14.212Z,2615.63
2018-04-06T11:59:14.230Z,2615.63
2018-04-06T12:00:14.254Z,2638.13
2018-04-06T12:01:14.276Z,2632.50
2018-04-06T12:02:14.307Z,2660.63
2018-04-06T12:03:14.326Z,2598.75
2018-04-06T12:04:14.372Z,2593.13
2018-04-06T12:05:14.369Z,2593.13
2018-04-06T12:06:14.757Z,2576.25
2018-04-06T12:07:14.417Z,2671.88
2018-04-06T12:08:14.442Z,2705.63
2018-04-06T12:09:14.464Z,2711.25
2018-04-06T12:10:14.488Z,2722.50
2018-04-06T12:11:14.522Z,2711.25
2018-04-06T12:12:14.538Z,2711.25
2018-04-06T12:13:14.560Z,2683.13
2018-04-06T12:14:14.588Z,2694.38
2018-04-06T12:15:14.613Z,2728.13
2018-04-06T12:16:14.633Z,2745.00
2018-04-06T12:17:14.665Z,2733.75
2018-04-06T12:18:14.682Z,2756.25
2018-04-06T12:19:14.710Z,2784.38
2018-04-06T12:20:14.733Z,2778.75
2018-04-06T12:21:14.757Z,2829.38
2018-04-06T12:22:14.780Z,2913.75
2018-04-06T12:23:14.812Z,3031.88
2018-04-06T12:24:14.834Z,3195.00
2018-04-06T12:25:14.855Z,3358.13
2018-04-06T12:26:14.895Z,3498.75
2018-04-06T12:27:14.903Z,3481.88
2018-04-06T12:28:14.928Z,3324.38
2018-04-06T12:29:14.955Z,3256.88
2018-04-06T12:30:14.978Z,3172.50
2018-04-06T12:31:15.002Z,3121.88
2018-04-06T12:32:15.032Z,3150.00
2018-04-06T12:33:15.055Z,3200.63
2018-04-06T12:34:15.080Z,3082.50
2018-04-06T12:35:15.109Z,2925.00
2018-04-06T12:36:15.133Z,2801.25
2018-04-06T12:37:15.151Z,2773.13
2018-04-06T12:38:15.178Z,2761.88
2018-04-06T12:39:15.202Z,2722.50
2018-04-06T12:40:15.227Z,2621.25
2018-04-06T12:41:15.265Z,2643.75
2018-04-06T12:42:15.278Z,2705.63
2018-04-06T12:43:15.302Z,2688.75
2018-04-06T12:44:15.331Z,2610.00
2018-04-06T12:45:15.358Z,2553.75
2018-04-06T12:46:15.380Z,2570.63